sensor_id;sensor_type;location;lat;lon;timestamp;pressure;altitude;pressure_sealevel;temperature;humidity
10646;BME280;5371;49.782;9.932;2022-10-16T00:01:29;99420.84;;;15.20;100.00
10646;BME280;5371;49.782;9.932;2022-10-16T00:03:58;99426.94;;;15.20;100.00
10646;BME280;5371;49.782;9.932;2022-10-16T00:06:26;99429.56;;;15.20;100.00
10646;BME280;5371;49.782;9.932;2022-10-16T00:08:54;99419.41;;;15.16;100.00
10646;BME280;5371;49.782;9.932;2022-10-16T00:11:23;99421.91;;;15.17;100.00
10646;BME280;5371;49.782;9.932;2022-10-16T00:13:54;99418.22;;;15.20;100.00
10646;BME280;5371;49.782;9.932;2022-10-16T00:16:21;99420.13;;;15.18;100.00
10646;BME280;5371;49.782;9.932;2022-10-16T00:18:49;99413.06;;;15.18;100.00
10646;BME280;5371;49.782;9.932;2022-10-16T00:21:18;99418.31;;;15.18;100.00
10646;BME280;5371;49.782;9.932;2022-10-16T00:24:06;99417.50;;;15.18;100.00
10646;BME280;5371;49.782;9.932;2022-10-16T00:26:36;99426.59;;;15.14;100.00
10646;BME280;5371;49.782;9.932;2022-10-16T00:29:04;99427.41;;;15.14;100.00
10646;BME280;5371;49.782;9.932;2022-10-16T00:31:31;99431.00;;;15.13;100.00
10646;BME280;5371;49.782;9.932;2022-10-16T00:34:00;99429.22;;;15.14;100.00
10646;BME280;5371;49.782;9.932;2022-10-16T00:36:27;99426.03;;;15.10;100.00
10646;BME280;5371;49.782;9.932;2022-10-16T00:38:57;99418.81;;;15.12;100.00
10646;BME280;5371;49.782;9.932;2022-10-16T00:41:26;99409.28;;;15.11;100.00
10646;BME280;5371;49.782;9.932;2022-10-16T00:43:54;99416.31;;;15.11;100.00
10646;BME280;5371;49.782;9.932;2022-10-16T00:46:24;99418.13;;;15.10;100.00
10646;BME280;5371;49.782;9.932;2022-10-16T00:48:56;99419.06;;;15.09;100.00
10646;BME280;5371;49.782;9.932;2022-10-16T00:51:28;99422.44;;;15.11;100.00
10646;BME280;5371;49.782;9.932;2022-10-16T00:53:57;99423.38;;;15.10;100.00
10646;BME280;5371;49.782;9.932;2022-10-16T00:56:24;99423.22;;;15.12;100.00
10646;BME280;5371;49.782;9.932;2022-10-16T00:58:51;99426.25;;;15.07;100.00
10646;BME280;5371;49.782;9.932;2022-10-16T01:01:18;99429.84;;;15.06;100.00
10646;BME280;5371;49.782;9.932;2022-10-16T01:03:45;99433.44;;;15.05;100.00
10646;BME280;5371;49.782;9.932;2022-10-16T01:06:21;99429.41;;;15.01;100.00
10646;BME280;5371;49.782;9.932;2022-10-16T01:09:06;99440.03;;;15.00;100.00
10646;BME280;5371;49.782;9.932;2022-10-16T01:11:41;99441.13;;;14.97;100.00
10646;BME280;5371;49.782;9.932;2022-10-16T01:14:15;99444.59;;;14.97;100.00
10646;BME280;5371;49.782;9.932;2022-10-16T01:16:49;99455.00;;;14.99;100.00
10646;BME280;5371;49.782;9.932;2022-10-16T01:19:29;99456.06;;;14.96;100.00
10646;BME280;5371;49.782;9.932;2022-10-16T01:22:00;99467.44;;;14.97;100.00
10646;BME280;5371;49.782;9.932;2022-10-16T01:24:34;99465.53;;;14.99;100.00
10646;BME280;5371;49.782;9.932;2022-10-16T01:27:07;99475.22;;;14.98;100.00
10646;BME280;5371;49.782;9.932;2022-10-16T01:29:37;99470.78;;;14.99;100.00
10646;BME280;5371;49.782;9.932;2022-10-16T01:32:10;99467.75;;;15.04;100.00
10646;BME280;5371;49.782;9.932;2022-10-16T01:34:47;99467.66;;;15.05;100.00
10646;BME280;5371;49.782;9.932;2022-10-16T01:37:16;99464.06;;;15.06;100.00
10646;BME280;5371;49.782;9.932;2022-10-16T01:39:46;99474.47;;;15.08;100.00
10646;BME280;5371;49.782;9.932;2022-10-16T01:42:18;99471.44;;;15.12;100.00
10646;BME280;5371;49.782;9.932;2022-10-16T01:44:48;99463.81;;;15.09;100.00
10646;BME280;5371;49.782;9.932;2022-10-16T01:47:17;99471.44;;;15.12;100.00
10646;BME280;5371;49.782;9.932;2022-10-16T01:49:46;99453.75;;;15.14;100.00
10646;BME280;5371;49.782;9.932;2022-10-16T01:52:17;99467.75;;;15.15;100.00
10646;BME280;5371;49.782;9.932;2022-10-16T01:54:47;99473.41;;;15.10;100.00
10646;BME280;5371;49.782;9.932;2022-10-16T01:57:18;99473.41;;;15.10;100.00
10646;BME280;5371;49.782;9.932;2022-10-16T01:59:51;99471.72;;;15.09;100.00
10646;BME280;5371;49.782;9.932;2022-10-16T02:02:20;99463.69;;;15.11;100.00
10646;BME280;5371;49.782;9.932;2022-10-16T02:04:53;99461.06;;;15.11;100.00
10646;BME280;5371;49.782;9.932;2022-10-16T02:07:22;99461.06;;;15.11;100.00
10646;BME280;5371;49.782;9.932;2022-10-16T02:09:49;99463.09;;;15.07;100.00
10646;BME280;5371;49.782;9.932;2022-10-16T02:12:22;99459.50;;;15.08;100.00
10646;BME280;5371;49.782;9.932;2022-10-16T02:14:50;99456.66;;;15.00;100.00
10646;BME280;5371;49.782;9.932;2022-10-16T02:17:17;99463.84;;;14.98;100.00
10646;BME280;5371;49.782;9.932;2022-10-16T02:19:46;99461.34;;;14.96;100.00
10646;BME280;5371;49.782;9.932;2022-10-16T02:22:17;99472.69;;;14.97;100.00
10646;BME280;5371;49.782;9.932;2022-10-16T02:24:50;99464.19;;;14.93;100.00
10646;BME280;5371;49.782;9.932;2022-10-16T02:27:24;99466.03;;;14.93;100.00
10646;BME280;5371;49.782;9.932;2022-10-16T02:29:56;99463.59;;;15.01;100.00
10646;BME280;5371;49.782;9.932;2022-10-16T02:32:28;99456.44;;;14.92;100.00
10646;BME280;5371;49.782;9.932;2022-10-16T02:34:58;99460.75;;;14.93;100.00
10646;BME280;5371;49.782;9.932;2022-10-16T02:37:27;99469.84;;;14.89;100.00
10646;BME280;5371;49.782;9.932;2022-10-16T02:39:56;99475.09;;;15.00;100.00
10646;BME280;5371;49.782;9.932;2022-10-16T02:42:29;99473.06;;;14.92;100.00
10646;BME280;5371;49.782;9.932;2022-10-16T02:44:56;99469.34;;;14.95;100.00
10646;BME280;5371;49.782;9.932;2022-10-16T02:47:23;99474.38;;;14.87;100.00
10646;BME280;5371;49.782;9.932;2022-10-16T02:49:50;99478.81;;;14.86;100.00
10646;BME280;5371;49.782;9.932;2022-10-16T02:52:17;99483.34;;;14.84;100.00
10646;BME280;5371;49.782;9.932;2022-10-16T02:54:44;99478.94;;;14.85;100.00
10646;BME280;5371;49.782;9.932;2022-10-16T02:57:10;99491.25;;;14.84;100.00
10646;BME280;5371;49.782;9.932;2022-10-16T02:59:39;99478.94;;;14.85;100.00
10646;BME280;5371;49.782;9.932;2022-10-16T03:02:06;99479.88;;;14.95;100.00
10646;BME280;5371;49.782;9.932;2022-10-16T03:04:33;99483.00;;;14.89;100.00
10646;BME280;5371;49.782;9.932;2022-10-16T03:07:00;99474.50;;;14.85;100.00
10646;BME280;5371;49.782;9.932;2022-10-16T03:09:27;99480.72;;;14.84;100.00
10646;BME280;5371;49.782;9.932;2022-10-16T03:11:54;99462.28;;;14.84;100.00
10646;BME280;5371;49.782;9.932;2022-10-16T03:14:21;99465.91;;;14.83;100.00
10646;BME280;5371;49.782;9.932;2022-10-16T03:16:49;99463.41;;;14.82;100.00
10646;BME280;5371;49.782;9.932;2022-10-16T03:19:17;99470.06;;;14.86;100.00
10646;BME280;5371;49.782;9.932;2022-10-16T03:21:44;99460.03;;;14.80;100.00
10646;BME280;5371;49.782;9.932;2022-10-16T03:24:11;99453.84;;;14.81;100.00
10646;BME280;5371;49.782;9.932;2022-10-16T03:26:37;99460.41;;;14.75;100.00
10646;BME280;5371;49.782;9.932;2022-10-16T03:29:04;99468.78;;;14.69;100.00
10646;BME280;5371;49.782;9.932;2022-10-16T03:31:32;99472.63;;;14.65;100.00
10646;BME280;5371;49.782;9.932;2022-10-16T03:34:00;99477.91;;;14.65;100.00
10646;BME280;5371;49.782;9.932;2022-10-16T03:36:27;99477.06;;;14.65;100.00
10646;BME280;5371;49.782;9.932;2022-10-16T03:38:54;99483.16;;;14.65;100.00
10646;BME280;5371;49.782;9.932;2022-10-16T03:41:21;99476.34;;;14.63;100.00
10646;BME280;5371;49.782;9.932;2022-10-16T03:43:48;99485.28;;;14.60;100.00
10646;BME280;5371;49.782;9.932;2022-10-16T03:46:15;99483.72;;;14.57;100.00
10646;BME280;5371;49.782;9.932;2022-10-16T03:48:42;99478.47;;;14.57;100.00
10646;BME280;5371;49.782;9.932;2022-10-16T03:51:10;99473.34;;;14.56;100.00
10646;BME280;5371;49.782;9.932;2022-10-16T03:53:37;99487.19;;;14.58;100.00
10646;BME280;5371;49.782;9.932;2022-10-16T03:56:04;99490.78;;;14.57;100.00
10646;BME280;5371;49.782;9.932;2022-10-16T03:58:31;99486.34;;;14.57;100.00
10646;BME280;5371;49.782;9.932;2022-10-16T04:01:01;99489.97;;;14.56;100.00
10646;BME280;5371;49.782;9.932;2022-10-16T04:03:28;99489.47;;;14.63;100.00
10646;BME280;5371;49.782;9.932;2022-10-16T04:05:55;99487.19;;;14.58;100.00
10646;BME280;5371;49.782;9.932;2022-10-16T04:08:23;99486.34;;;14.57;100.00
10646;BME280;5371;49.782;9.932;2022-10-16T04:10:52;99490.94;;;14.55;100.00
10646;BME280;5371;49.782;9.932;2022-10-16T04:13:19;99496.88;;;14.57;100.00
10646;BME280;5371;49.782;9.932;2022-10-16T04:15:46;99499.50;;;14.57;100.00
10646;BME280;5371;49.782;9.932;2022-10-16T04:18:13;99498.56;;;14.58;100.00
10646;BME280;5371;49.782;9.932;2022-10-16T04:20:40;99505.59;;;14.58;100.00
10646;BME280;5371;49.782;9.932;2022-10-16T04:23:10;99502.97;;;14.58;100.00
10646;BME280;5371;49.782;9.932;2022-10-16T04:25:39;99503.59;;;14.62;100.00
10646;BME280;5371;49.782;9.932;2022-10-16T04:28:06;99509.78;;;14.60;100.00
10646;BME280;5371;49.782;9.932;2022-10-16T04:30:32;99502.13;;;14.57;100.00
10646;BME280;5371;49.782;9.932;2022-10-16T04:33:00;99504.91;;;14.56;100.00
10646;BME280;5371;49.782;9.932;2022-10-16T04:35:27;99500.50;;;14.56;100.00
10646;BME280;5371;49.782;9.932;2022-10-16T04:37:53;99504.66;;;14.59;100.00
10646;BME280;5371;49.782;9.932;2022-10-16T04:40:20;99504.66;;;14.59;100.00
10646;BME280;5371;49.782;9.932;2022-10-16T04:42:49;99517.06;;;14.57;100.00
10646;BME280;5371;49.782;9.932;2022-10-16T04:45:16;99528.22;;;14.60;100.00
10646;BME280;5371;49.782;9.932;2022-10-16T04:47:43;99532.63;;;14.60;100.00
10646;BME280;5371;49.782;9.932;2022-10-16T04:50:09;99530.00;;;14.60;100.00
10646;BME280;5371;49.782;9.932;2022-10-16T04:52:36;99536.00;;;14.62;100.00
10646;BME280;5371;49.782;9.932;2022-10-16T04:55:04;99531.78;;;14.59;100.00
10646;BME280;5371;49.782;9.932;2022-10-16T04:57:31;99538.13;;;14.57;100.00
10646;BME280;5371;49.782;9.932;2022-10-16T05:00:00;99545.66;;;14.62;100.00
10646;BME280;5371;49.782;9.932;2022-10-16T05:02:28;99538.63;;;14.62;100.00
10646;BME280;5371;49.782;9.932;2022-10-16T05:04:55;99532.50;;;14.62;100.00
10646;BME280;5371;49.782;9.932;2022-10-16T05:07:22;99515.06;;;14.60;100.00
10646;BME280;5371;49.782;9.932;2022-10-16T05:09:49;99521.28;;;14.59;100.00
10646;BME280;5371;49.782;9.932;2022-10-16T05:12:16;99515.06;;;14.60;100.00
10646;BME280;5371;49.782;9.932;2022-10-16T05:14:43;99514.34;;;14.58;100.00
10646;BME280;5371;49.782;9.932;2022-10-16T05:17:11;99530.22;;;14.57;100.00
10646;BME280;5371;49.782;9.932;2022-10-16T05:19:38;99535.63;;;14.55;100.00
10646;BME280;5371;49.782;9.932;2022-10-16T05:22:05;99544.47;;;14.54;100.00
10646;BME280;5371;49.782;9.932;2022-10-16T05:24:31;99536.91;;;14.50;100.00
10646;BME280;5371;49.782;9.932;2022-10-16T05:26:58;99536.91;;;14.50;100.00
10646;BME280;5371;49.782;9.932;2022-10-16T05:29:25;99540.50;;;14.49;100.00
10646;BME280;5371;49.782;9.932;2022-10-16T05:31:53;99536.09;;;14.49;100.00
10646;BME280;5371;49.782;9.932;2022-10-16T05:34:21;99540.41;;;14.50;100.00
10646;BME280;5371;49.782;9.932;2022-10-16T05:36:48;99541.34;;;14.49;100.00
10646;BME280;5371;49.782;9.932;2022-10-16T05:39:15;99540.41;;;14.50;100.00
10646;BME280;5371;49.782;9.932;2022-10-16T05:41:43;99539.31;;;14.53;100.00
10646;BME280;5371;49.782;9.932;2022-10-16T05:44:10;99527.97;;;14.52;100.00
10646;BME280;5371;49.782;9.932;2022-10-16T05:46:38;99533.22;;;14.52;100.00
10646;BME280;5371;49.782;9.932;2022-10-16T05:49:05;99527.25;;;14.50;100.00
10646;BME280;5371;49.782;9.932;2022-10-16T05:51:33;99538.59;;;14.51;100.00
10646;BME280;5371;49.782;9.932;2022-10-16T05:54:00;99549.00;;;14.52;100.00
10646;BME280;5371;49.782;9.932;2022-10-16T05:56:27;99550.69;;;14.53;100.00
10646;BME280;5371;49.782;9.932;2022-10-16T05:58:54;99540.06;;;14.55;100.00
10646;BME280;5371;49.782;9.932;2022-10-16T06:01:21;99537.31;;;14.56;100.00
10646;BME280;5371;49.782;9.932;2022-10-16T06:03:50;99553.91;;;14.57;100.00
10646;BME280;5371;49.782;9.932;2022-10-16T06:06:18;99557.13;;;14.60;100.00
10646;BME280;5371;49.782;9.932;2022-10-16T06:08:48;99568.72;;;14.58;100.00
10646;BME280;5371;49.782;9.932;2022-10-16T06:11:17;99550.56;;;14.55;100.00
10646;BME280;5371;49.782;9.932;2022-10-16T06:13:44;99546.41;;;14.75;100.00
10646;BME280;5371;49.782;9.932;2022-10-16T06:16:12;99550.69;;;14.65;100.00
10646;BME280;5371;49.782;9.932;2022-10-16T06:18:39;99561.44;;;14.62;100.00
10646;BME280;5371;49.782;9.932;2022-10-16T06:21:11;99571.97;;;14.62;100.00
10646;BME280;5371;49.782;9.932;2022-10-16T06:23:38;99565.97;;;14.59;100.00
10646;BME280;5371;49.782;9.932;2022-10-16T06:26:08;99566.09;;;14.58;100.00
10646;BME280;5371;49.782;9.932;2022-10-16T06:28:36;99559.78;;;14.60;100.00
10646;BME280;5371;49.782;9.932;2022-10-16T06:31:04;99564.06;;;14.62;100.00
10646;BME280;5371;49.782;9.932;2022-10-16T06:33:31;99580.34;;;14.67;100.00
10646;BME280;5371;49.782;9.932;2022-10-16T06:36:02;99578.78;;;14.75;100.00
10646;BME280;5371;49.782;9.932;2022-10-16T06:38:30;99595.78;;;14.71;100.00
10646;BME280;5371;49.782;9.932;2022-10-16T06:40:57;99602.72;;;14.72;100.00
10646;BME280;5371;49.782;9.932;2022-10-16T06:43:26;99603.66;;;14.71;100.00
10646;BME280;5371;49.782;9.932;2022-10-16T06:45:53;99599.00;;;14.75;100.00
10646;BME280;5371;49.782;9.932;2022-10-16T06:48:21;99602.34;;;14.77;100.00
10646;BME280;5371;49.782;9.932;2022-10-16T06:50:56;99611.56;;;14.82;100.00
10646;BME280;5371;49.782;9.932;2022-10-16T06:53:23;99609.78;;;14.83;100.00
10646;BME280;5371;49.782;9.932;2022-10-16T06:55:50;99606.19;;;14.95;100.00
10646;BME280;5371;49.782;9.932;2022-10-16T06:58:17;99616.25;;;15.01;100.00
10646;BME280;5371;49.782;9.932;2022-10-16T07:00:46;99625.69;;;15.04;100.00
10646;BME280;5371;49.782;9.932;2022-10-16T07:03:13;99625.94;;;15.01;100.00
10646;BME280;5371;49.782;9.932;2022-10-16T07:05:41;99635.97;;;15.07;100.00
10646;BME280;5371;49.782;9.932;2022-10-16T07:08:09;99642.53;;;15.12;100.00
10646;BME280;5371;49.782;9.932;2022-10-16T07:10:36;99637.44;;;15.11;100.00
10646;BME280;5371;49.782;9.932;2022-10-16T07:13:03;99641.59;;;15.13;100.00
10646;BME280;5371;49.782;9.932;2022-10-16T07:15:30;99641.38;;;15.16;100.00
10646;BME280;5371;49.782;9.932;2022-10-16T07:17:59;99658.84;;;15.17;100.00
10646;BME280;5371;49.782;9.932;2022-10-16T07:20:26;99664.94;;;15.18;100.00
10646;BME280;5371;49.782;9.932;2022-10-16T07:22:53;99671.88;;;15.19;100.00
10646;BME280;5371;49.782;9.932;2022-10-16T07:25:20;99680.63;;;15.19;100.00
10646;BME280;5371;49.782;9.932;2022-10-16T07:27:46;99681.56;;;15.18;100.00
10646;BME280;5371;49.782;9.932;2022-10-16T07:30:14;99692.84;;;15.20;100.00
10646;BME280;5371;49.782;9.932;2022-10-16T07:32:41;99683.94;;;15.21;100.00
10646;BME280;5371;49.782;9.932;2022-10-16T07:35:13;99660.41;;;15.20;100.00
10646;BME280;5371;49.782;9.932;2022-10-16T07:37:44;99662.88;;;15.21;100.00
10646;BME280;5371;49.782;9.932;2022-10-16T07:40:11;99671.28;;;15.15;100.00
10646;BME280;5371;49.782;9.932;2022-10-16T07:42:38;99670.44;;;15.15;100.00
10646;BME280;5371;49.782;9.932;2022-10-16T07:45:06;99673.78;;;15.17;100.00
10646;BME280;5371;49.782;9.932;2022-10-16T07:47:33;99680.75;;;15.18;100.00
10646;BME280;5371;49.782;9.932;2022-10-16T07:50:00;99672.84;;;15.18;100.00
10646;BME280;5371;49.782;9.932;2022-10-16T07:52:28;99683.84;;;15.23;100.00
10646;BME280;5371;49.782;9.932;2022-10-16T07:54:55;99687.91;;;15.27;100.00
10646;BME280;5371;49.782;9.932;2022-10-16T07:57:22;99691.97;;;15.31;100.00
10646;BME280;5371;49.782;9.932;2022-10-16T07:59:49;99686.84;;;15.29;100.00
10646;BME280;5371;49.782;9.932;2022-10-16T08:02:16;99694.50;;;15.32;100.00
10646;BME280;5371;49.782;9.932;2022-10-16T08:04:43;99689.59;;;15.28;100.00
10646;BME280;5371;49.782;9.932;2022-10-16T08:07:10;99699.19;;;15.29;100.00
10646;BME280;5371;49.782;9.932;2022-10-16T08:09:38;99693.06;;;15.28;100.00
10646;BME280;5371;49.782;9.932;2022-10-16T08:12:05;99694.88;;;15.28;100.00
10646;BME280;5371;49.782;9.932;2022-10-16T08:14:32;99700.03;;;15.29;100.00
10646;BME280;5371;49.782;9.932;2022-10-16T08:16:59;99701.78;;;15.40;100.00
10646;BME280;5371;49.782;9.932;2022-10-16T08:19:27;99698.47;;;15.60;100.00
10646;BME280;5371;49.782;9.932;2022-10-16T08:21:55;99701.69;;;15.64;100.00
10646;BME280;5371;49.782;9.932;2022-10-16T08:24:22;99702.88;;;15.71;100.00
10646;BME280;5371;49.782;9.932;2022-10-16T08:26:53;99703.50;;;15.63;100.00
10646;BME280;5371;49.782;9.932;2022-10-16T08:29:20;99711.03;;;15.68;100.00
10646;BME280;5371;49.782;9.932;2022-10-16T08:31:47;99711.03;;;15.68;100.00
10646;BME280;5371;49.782;9.932;2022-10-16T08:34:14;99720.25;;;15.74;100.00
10646;BME280;5371;49.782;9.932;2022-10-16T08:36:41;99724.31;;;15.78;100.00
10646;BME280;5371;49.782;9.932;2022-10-16T08:39:08;99721.66;;;15.89;100.00
10646;BME280;5371;49.782;9.932;2022-10-16T08:42:09;99729.91;;;15.95;100.00
10646;BME280;5371;49.782;9.932;2022-10-16T08:44:58;99736.00;;;15.96;100.00
10646;BME280;5371;49.782;9.932;2022-10-16T08:47:39;99729.78;;;16.08;100.00
10646;BME280;5371;49.782;9.932;2022-10-16T08:50:12;99730.84;;;16.05;100.00
10646;BME280;5371;49.782;9.932;2022-10-16T08:52:41;99732.28;;;16.09;100.00
10646;BME280;5371;49.782;9.932;2022-10-16T08:55:20;99723.09;;;16.36;100.00
10646;BME280;5371;49.782;9.932;2022-10-16T08:57:53;99730.28;;;16.34;100.00
10646;BME280;5371;49.782;9.932;2022-10-16T09:00:22;99731.66;;;16.49;100.00
10646;BME280;5371;49.782;9.932;2022-10-16T09:02:53;99733.09;;;16.53;100.00
10646;BME280;5371;49.782;9.932;2022-10-16T09:05:30;99737.63;;;16.62;100.00
10646;BME280;5371;49.782;9.932;2022-10-16T09:08:07;99737.53;;;16.64;100.00
10646;BME280;5371;49.782;9.932;2022-10-16T09:10:45;99740.91;;;16.75;100.00
10646;BME280;5371;49.782;9.932;2022-10-16T09:13:21;99744.34;;;16.87;100.00
10646;BME280;5371;49.782;9.932;2022-10-16T09:15:55;99749.44;;;17.00;100.00
10646;BME280;5371;49.782;9.932;2022-10-16T09:18:32;99745.25;;;16.97;100.00
10646;BME280;5371;49.782;9.932;2022-10-16T09:21:09;99750.59;;;17.07;100.00
10646;BME280;5371;49.782;9.932;2022-10-16T09:23:40;99754.13;;;17.17;100.00
10646;BME280;5371;49.782;9.932;2022-10-16T09:26:11;99757.03;;;17.14;100.00
10646;BME280;5371;49.782;9.932;2022-10-16T09:28:40;99762.53;;;17.01;100.00
10646;BME280;5371;49.782;9.932;2022-10-16T09:31:13;99758.94;;;17.02;100.00
10646;BME280;5371;49.782;9.932;2022-10-16T09:33:42;99767.81;;;17.01;100.00
10646;BME280;5371;49.782;9.932;2022-10-16T09:36:11;99765.53;;;16.97;100.00
10646;BME280;5371;49.782;9.932;2022-10-16T09:38:38;99767.38;;;16.85;100.00
10646;BME280;5371;49.782;9.932;2022-10-16T09:41:14;99750.03;;;16.82;100.00
10646;BME280;5371;49.782;9.932;2022-10-16T09:43:49;99759.78;;;16.71;100.00
10646;BME280;5371;49.782;9.932;2022-10-16T09:46:26;99765.44;;;16.66;100.00
10646;BME280;5371;49.782;9.932;2022-10-16T09:49:04;99773.94;;;16.70;100.00
10646;BME280;5371;49.782;9.932;2022-10-16T09:51:34;99785.09;;;16.73;100.00
10646;BME280;5371;49.782;9.932;2022-10-16T09:54:13;99781.56;;;16.84;100.00
10646;BME280;5371;49.782;9.932;2022-10-16T09:56:41;99789.06;;;17.00;100.00
10646;BME280;5371;49.782;9.932;2022-10-16T09:59:15;99777.97;;;17.06;100.00
10646;BME280;5371;49.782;9.932;2022-10-16T10:01:44;99780.41;;;16.98;100.00
10646;BME280;5371;49.782;9.932;2022-10-16T10:04:13;99793.63;;;16.98;100.00
10646;BME280;5371;49.782;9.932;2022-10-16T10:06:43;99783.66;;;17.01;100.00
10646;BME280;5371;49.782;9.932;2022-10-16T10:09:17;99797.28;;;17.06;100.00
10646;BME280;5371;49.782;9.932;2022-10-16T10:11:48;99794.00;;;17.14;100.00
10646;BME280;5371;49.782;9.932;2022-10-16T10:14:30;99806.06;;;17.28;100.00
10646;BME280;5371;49.782;9.932;2022-10-16T10:17:09;99805.78;;;17.31;100.00
10646;BME280;5371;49.782;9.932;2022-10-16T10:19:38;99808.03;;;17.35;100.00
10646;BME280;5371;49.782;9.932;2022-10-16T10:22:24;99815.44;;;17.41;100.00
10646;BME280;5371;49.782;9.932;2022-10-16T10:25:13;99816.16;;;17.43;100.00
10646;BME280;5371;49.782;9.932;2022-10-16T10:30:39;99851.03;;;17.37;100.00
10646;BME280;5371;49.782;9.932;2022-10-16T10:33:21;99858.03;;;17.27;100.00
10646;BME280;5371;49.782;9.932;2022-10-16T10:35:56;99866.63;;;17.19;100.00
10646;BME280;5371;49.782;9.932;2022-10-16T10:38:32;99852.63;;;17.08;100.00
10646;BME280;5371;49.782;9.932;2022-10-16T10:41:13;99841.13;;;16.98;100.00
10646;BME280;5371;49.782;9.932;2022-10-16T10:43:54;99844.09;;;16.83;100.00
10646;BME280;5371;49.782;9.932;2022-10-16T10:46:32;99834.84;;;16.78;100.00
10646;BME280;5371;49.782;9.932;2022-10-16T10:49:16;99830.50;;;16.88;100.00
10646;BME280;5371;49.782;9.932;2022-10-16T10:51:57;99824.22;;;17.00;100.00
10646;BME280;5371;49.782;9.932;2022-10-16T10:54:32;99832.91;;;17.12;100.00
10646;BME280;5371;49.782;9.932;2022-10-16T10:57:10;99825.63;;;17.25;100.00
10646;BME280;5371;49.782;9.932;2022-10-16T10:59:58;99823.31;;;17.73;100.00
10646;BME280;5371;49.782;9.932;2022-10-16T11:02:36;99824.72;;;18.77;100.00
10646;BME280;5371;49.782;9.932;2022-10-16T11:05:31;99835.19;;;19.83;100.00
10646;BME280;5371;49.782;9.932;2022-10-16T11:08:02;99827.84;;;21.12;100.00
10646;BME280;5371;49.782;9.932;2022-10-16T11:10:41;99828.81;;;21.80;100.00
10646;BME280;5371;49.782;9.932;2022-10-16T11:13:18;99830.13;;;22.60;100.00
10646;BME280;5371;49.782;9.932;2022-10-16T11:15:48;99836.41;;;23.26;100.00
10646;BME280;5371;49.782;9.932;2022-10-16T11:18:21;99824.22;;;22.99;100.00
10646;BME280;5371;49.782;9.932;2022-10-16T11:20:53;99818.91;;;22.74;100.00
10646;BME280;5371;49.782;9.932;2022-10-16T11:23:25;99816.56;;;23.04;100.00
10646;BME280;5371;49.782;9.932;2022-10-16T11:25:57;99816.66;;;23.83;100.00
10646;BME280;5371;49.782;9.932;2022-10-16T11:28:31;99813.53;;;23.64;100.00
10646;BME280;5371;49.782;9.932;2022-10-16T11:31:04;99810.22;;;22.97;100.00
10646;BME280;5371;49.782;9.932;2022-10-16T11:33:40;99808.09;;;22.92;100.00
10646;BME280;5371;49.782;9.932;2022-10-16T11:36:12;99809.19;;;23.63;100.00
10646;BME280;5371;49.782;9.932;2022-10-16T11:38:46;99811.84;;;23.71;100.00
10646;BME280;5371;49.782;9.932;2022-10-16T11:41:22;99811.06;;;23.54;100.00
10646;BME280;5371;49.782;9.932;2022-10-16T11:44:00;99801.88;;;23.48;100.00
10646;BME280;5371;49.782;9.932;2022-10-16T11:46:32;99804.53;;;23.65;100.00
10646;BME280;5371;49.782;9.932;2022-10-16T11:49:06;99797.09;;;23.20;100.00
10646;BME280;5371;49.782;9.932;2022-10-16T11:51:38;99801.81;;;23.81;100.00
10646;BME280;5371;49.782;9.932;2022-10-16T11:54:16;99787.06;;;24.63;100.00
10646;BME280;5371;49.782;9.932;2022-10-16T11:56:50;99787.34;;;24.06;100.00
10646;BME280;5371;49.782;9.932;2022-10-16T11:59:25;99777.41;;;24.85;100.00
10646;BME280;5371;49.782;9.932;2022-10-16T12:01:59;99777.97;;;25.18;100.00
10646;BME280;5371;49.782;9.932;2022-10-16T12:04:40;99788.25;;;24.38;100.00
10646;BME280;5371;49.782;9.932;2022-10-16T12:07:13;99787.97;;;24.16;100.00
10646;BME280;5371;49.782;9.932;2022-10-16T12:09:41;99787.34;;;23.75;100.00
10646;BME280;5371;49.782;9.932;2022-10-16T12:12:24;99777.03;;;23.64;100.00
10646;BME280;5371;49.782;9.932;2022-10-16T12:15:00;99777.94;;;23.00;100.00
10646;BME280;5371;49.782;9.932;2022-10-16T12:17:35;99773.50;;;22.34;100.00
10646;BME280;5371;49.782;9.932;2022-10-16T12:20:21;99770.00;;;21.91;100.00
10646;BME280;5371;49.782;9.932;2022-10-16T12:22:50;99763.38;;;21.61;100.00
10646;BME280;5371;49.782;9.932;2022-10-16T12:25:22;99770.91;;;21.66;100.00
10646;BME280;5371;49.782;9.932;2022-10-16T12:27:55;99774.34;;;21.33;100.00
10646;BME280;5371;49.782;9.932;2022-10-16T12:30:24;99772.72;;;20.96;100.00
10646;BME280;5371;49.782;9.932;2022-10-16T12:32:56;99773.06;;;20.75;100.00
10646;BME280;5371;49.782;9.932;2022-10-16T12:35:28;99778.28;;;20.67;100.00
10646;BME280;5371;49.782;9.932;2022-10-16T12:38:05;99769.50;;;20.67;100.00
10646;BME280;5371;49.782;9.932;2022-10-16T12:40:35;99767.59;;;20.59;100.00
10646;BME280;5371;49.782;9.932;2022-10-16T12:43:34;99786.09;;;20.69;100.00
10646;BME280;5371;49.782;9.932;2022-10-16T12:46:05;99787.91;;;20.86;100.00
10646;BME280;5371;49.782;9.932;2022-10-16T12:48:35;99791.19;;;20.80;100.00
10646;BME280;5371;49.782;9.932;2022-10-16T12:51:22;99787.59;;;21.07;100.00
10646;BME280;5371;49.782;9.932;2022-10-16T12:53:58;99784.72;;;21.00;100.00
10646;BME280;5371;49.782;9.932;2022-10-16T12:56:36;99789.13;;;20.91;100.00
10646;BME280;5371;49.782;9.932;2022-10-16T12:59:12;99774.97;;;20.83;100.00
10646;BME280;5371;49.782;9.932;2022-10-16T13:01:56;99778.97;;;20.87;100.00
10646;BME280;5371;49.782;9.932;2022-10-16T13:04:38;99778.19;;;20.77;100.00
10646;BME280;5371;49.782;9.932;2022-10-16T13:07:24;99782.53;;;20.78;100.00
10646;BME280;5371;49.782;9.932;2022-10-16T13:10:03;99784.50;;;20.94;100.00
10646;BME280;5371;49.782;9.932;2022-10-16T13:12:51;99783.16;;;21.15;100.00
10646;BME280;5371;49.782;9.932;2022-10-16T13:15:34;99785.63;;;21.26;100.00
10646;BME280;5371;49.782;9.932;2022-10-16T13:18:10;99793.94;;;21.32;100.00
10646;BME280;5371;49.782;9.932;2022-10-16T13:20:52;99795.66;;;21.41;100.00
10646;BME280;5371;49.782;9.932;2022-10-16T13:23:26;99795.72;;;21.49;100.00